Cold Bay Airport Cold Bay US
ICAO: PACD
IATA:
Category: Medium
Scheduled Services:

Elevation: 96 ft
TransAlt. 18000 ft.

Airport Communications:
ASOS:135.75
ANCHORAGE CNTR:118.5
CTAF:123.6
RDO:123.6
KENAI RDO:123.6

PACD Zoom In..

If you have problems with the map follow the link
https://www.worldairports.se/pages/airport.php?
ICAO=PACD

Runways:

(A) RW 08 length 6235 ft width 150 ft
---- / hdg 83

(B) RW 15 length 10180 ft width 150 ft
ILS 110.30 / hdg 146

(C) RW 26 length 6235 ft width 150 ft
---- / hdg 263

(D) RW 33 length 10180 ft width 150 ft
---- / hdg 326

Location; PACD
Day. 23 / Time. 21.53 Zulu
* Altimeter: 29.92
* Temperature: -05° c. -23°f.
* Wind from: 020° Speed 18 kn with Gusts up to 25 kn.
Dewpoint: -11° c.
Visibility: 10 Statute Miles.
Clouds: Clear (automated report).

PACD 232153Z 02018G25KT 10SM CLR M05/M11 A2992 RMK AO2 PK WND 04027/2058 SLP133 T10501111


Wind From 020°
Speed 18 kn.

 
 
jpsmedia worldairports.se 2020   terms of use